Time;durP1;ratioP1;P1;durP2;ratioP2;P2;SDS_P1;SDS_P2;PMS_P1;PMS_P2;Temp;Humidity;BMP_temperature;BMP_pressure;BME280_temperature;BME280_humidity;BME280_pressure;Samples;Min_cycle;Max_cycle;Signal;HPM_P1;HPM_P2
2021/11/12 00:13:06;;;;;;;64.20;23.63;;;;;;;;;;5097048;28;20431;-74
2021/11/12 00:15:35;;;;;;;45.53;22.60;;;;;;;;;;5096899;28;20830;-73
2021/11/12 00:18:04;;;;;;;53.63;22.77;;;;;;;;;;5096411;28;20444;-73
2021/11/12 00:20:32;;;;;;;55.70;24.70;;;;;;;;;;5100089;28;20470;-74
2021/11/12 00:23:01;;;;;;;60.37;24.10;;;;;;;;;;5096808;28;20487;-72
2021/11/12 00:25:29;;;;;;;57.80;25.67;;;;;;;;;;5105141;28;20516;-72
2021/11/12 00:27:57;;;;;;;66.80;22.40;;;;;;;;;;5115949;28;20521;-72
2021/11/12 00:30:34;;;;;;;53.63;25.07;;;;;;;;;;5115227;28;20457;-72
2021/11/12 00:33:09;;;;;;;76.73;29.00;;;;;;;;;;5076839;28;20463;-73
2021/11/12 00:35:42;;;;;;;58.33;27.67;;;;;;;;;;5079469;28;20721;-73
2021/11/12 00:38:14;;;;;;;61.20;25.50;;;;;;;;;;5105468;28;20819;-74
2021/11/12 00:40:49;;;;;;;60.20;23.83;;;;;;;;;;5114934;28;20472;-73
2021/11/12 00:43:29;;;;;;;58.90;23.77;;;;;;;;;;5103179;28;20447;-73
2021/11/12 00:46:08;;;;;;;57.20;25.23;;;;;;;;;;5117598;28;20470;-73
2021/11/12 00:48:40;;;;;;;64.77;24.87;;;;;;;;;;5106357;28;20479;-73
2021/11/12 00:51:13;;;;;;;56.70;22.40;;;;;;;;;;5099927;28;20448;-73
2021/11/12 00:54:06;;;;;;;46.03;20.77;;;;;;;;;;5117693;28;20472;-74
2021/11/12 00:56:34;;;;;;;55.03;23.57;;;;;;;;;;5120654;28;20451;-72
2021/11/12 00:59:02;;;;;;;52.30;23.23;;;;;;;;;;5116933;28;20451;-73
2021/11/12 01:01:32;;;;;;;64.30;22.93;;;;;;;;;;5115393;28;20708;-73
2021/11/12 01:04:00;;;;;;;57.30;24.20;;;;;;;;;;5116535;27;20463;-73
2021/11/12 01:06:29;;;;;;;49.37;26.40;;;;;;;;;;5109696;27;20501;-73
2021/11/12 01:08:59;;;;;;;58.93;25.50;;;;;;;;;;5100017;28;20923;-74
2021/11/12 01:11:31;;;;;;;46.33;22.20;;;;;;;;;;5099939;28;20463;-73
2021/11/12 01:13:59;;;;;;;49.87;22.77;;;;;;;;;;5098941;28;20474;-73
2021/11/12 01:16:27;;;;;;;54.83;22.27;;;;;;;;;;5100556;28;20443;-73
2021/11/12 01:18:55;;;;;;;72.13;25.10;;;;;;;;;;5098894;28;20463;-73
2021/11/12 01:21:23;;;;;;;53.73;22.43;;;;;;;;;;5099626;28;20483;-73
2021/11/12 01:23:52;;;;;;;66.73;22.23;;;;;;;;;;5109061;28;20465;-72
2021/11/12 01:26:21;;;;;;;67.13;22.70;;;;;;;;;;5119489;28;20457;-73
2021/11/12 01:28:50;;;;;;;56.47;23.70;;;;;;;;;;5119242;28;20552;-72
2021/11/12 01:31:20;;;;;;;59.23;24.10;;;;;;;;;;5119735;28;20451;-72
2021/11/12 01:33:48;;;;;;;50.73;25.70;;;;;;;;;;5119087;28;20499;-73
2021/11/12 01:36:28;;;;;;;60.20;23.10;;;;;;;;;;5103374;28;20841;-73
2021/11/12 01:38:58;;;;;;;45.00;21.40;;;;;;;;;;5109433;28;20475;-72
2021/11/12 01:41:27;;;;;;;46.47;22.60;;;;;;;;;;5118987;28;20479;-73
2021/11/12 01:43:55;;;;;;;56.50;24.43;;;;;;;;;;5119059;28;20469;-73
2021/11/12 01:46:31;;;;;;;51.97;21.93;;;;;;;;;;5118546;28;20462;-73
2021/11/12 01:49:15;;;;;;;52.27;24.07;;;;;;;;;;5099961;28;20482;-72
2021/11/12 01:51:48;;;;;;;52.03;24.50;;;;;;;;;;5113624;28;20447;-71
2021/11/12 01:59:53;;;;;;;56.63;23.47;;;;;;;;;;5064257;28;20862;-73
2021/11/12 02:02:22;;;;;;;56.50;24.00;;;;;;;;;;5102277;28;20574;-73
2021/11/12 02:04:50;;;;;;;47.63;23.50;;;;;;;;;;5098114;28;20558;-73
2021/11/12 02:07:19;;;;;;;51.70;23.60;;;;;;;;;;5104765;28;20489;-73
2021/11/12 02:09:46;;;;;;;56.73;22.33;;;;;;;;;;5108324;28;20466;-72
2021/11/12 02:12:26;;;;;;;50.23;23.80;;;;;;;;;;5098544;28;20452;-73
2021/11/12 02:14:56;;;;;;;52.10;21.67;;;;;;;;;;5108131;28;20454;-73
2021/11/12 02:17:26;;;;;;;52.53;23.30;;;;;;;;;;5118746;28;20496;-73
2021/11/12 02:19:56;;;;;;;46.50;23.30;;;;;;;;;;5107270;28;20460;-73
2021/11/12 02:22:28;;;;;;;63.40;24.80;;;;;;;;;;5090589;28;20469;-73
2021/11/12 02:25:00;;;;;;;52.93;22.73;;;;;;;;;;5108890;28;20740;-73
2021/11/12 02:27:34;;;;;;;58.67;25.90;;;;;;;;;;5117849;28;20501;-72
2021/11/12 02:30:02;;;;;;;46.50;21.63;;;;;;;;;;5117782;28;20545;-73
2021/11/12 02:32:31;;;;;;;47.60;20.73;;;;;;;;;;5100961;28;20444;-73
2021/11/12 02:35:00;;;;;;;46.10;21.17;;;;;;;;;;5114026;28;20450;-73
2021/11/12 02:37:31;;;;;;;55.17;23.87;;;;;;;;;;5104732;28;20440;-73
2021/11/12 02:39:59;;;;;;;51.90;20.30;;;;;;;;;;5097185;28;20456;-73
2021/11/12 02:42:27;;;;;;;45.10;21.30;;;;;;;;;;5098183;28;20452;-73
2021/11/12 02:44:55;;;;;;;51.10;21.37;;;;;;;;;;5097590;28;20462;-73
2021/11/12 02:47:23;;;;;;;50.17;21.67;;;;;;;;;;5096541;28;20630;-73
2021/11/12 02:49:53;;;;;;;53.37;24.83;;;;;;;;;;5097371;28;20634;-72
2021/11/12 02:52:21;;;;;;;49.70;23.27;;;;;;;;;;5097003;28;20452;-72
2021/11/12 02:54:50;;;;;;;48.87;23.27;;;;;;;;;;5105737;28;20549;-72
2021/11/12 02:57:21;;;;;;;56.67;25.10;;;;;;;;;;5106036;28;20443;-72
2021/11/12 02:59:48;;;;;;;69.43;25.93;;;;;;;;;;5118125;28;20469;-72
2021/11/12 03:02:17;;;;;;;61.67;23.77;;;;;;;;;;5117993;28;20492;-72
2021/11/12 03:04:44;;;;;;;52.03;21.60;;;;;;;;;;5117473;28;20462;-73
2021/11/12 03:07:12;;;;;;;54.97;22.07;;;;;;;;;;5107522;28;20446;-73
2021/11/12 03:09:41;;;;;;;39.17;19.50;;;;;;;;;;5115543;28;20478;-73
2021/11/12 03:12:11;;;;;;;61.57;24.50;;;;;;;;;;5098022;28;20766;-73
2021/11/12 03:14:39;;;;;;;53.53;24.67;;;;;;;;;;5096136;28;20455;-73
2021/11/12 03:17:07;;;;;;;59.00;24.33;;;;;;;;;;5097431;28;20693;-73
2021/11/12 03:19:35;;;;;;;59.90;25.73;;;;;;;;;;5104159;28;20455;-73
2021/11/12 03:22:05;;;;;;;58.87;25.83;;;;;;;;;;5116829;28;20462;-73
2021/11/12 03:24:36;;;;;;;64.00;25.00;;;;;;;;;;5111896;28;20806;-73
2021/11/12 03:27:16;;;;;;;57.00;23.37;;;;;;;;;;5116313;28;20466;-73
2021/11/12 04:00:32;;;;;;;58.77;24.90;;;;;;;;;;5064068;28;20805;-73
2021/11/12 04:03:08;;;;;;;54.53;23.20;;;;;;;;;;5096717;28;20443;-73
2021/11/12 04:31:12;;;;;;;71.80;25.90;;;;;;;;;;5103679;28;20461;-73
2021/11/12 05:10:26;;;;;;;54.77;19.80;;;;;;;;;;5099105;28;20522;-73
2021/11/12 05:13:16;;;;;;;44.90;18.83;;;;;;;;;;5099879;28;20443;-73
2021/11/12 05:46:21;;;;;;;50.73;16.57;;;;;;;;;;5087486;28;20443;-72
2021/11/12 05:51:45;;;;;;;47.77;16.80;;;;;;;;;;5098192;28;20516;-72
2021/11/12 05:56:59;;;;;;;42.33;16.30;;;;;;;;;;5096548;28;20414;-73
2021/11/12 05:59:28;;;;;;;45.37;20.33;;;;;;;;;;5097416;28;20455;-73
2021/11/12 06:01:56;;;;;;;37.70;15.03;;;;;;;;;;5095784;28;20474;-73
2021/11/12 06:04:25;;;;;;;39.73;15.93;;;;;;;;;;5096573;28;20465;-73
2021/11/12 06:06:53;;;;;;;46.13;17.30;;;;;;;;;;5094796;28;20505;-73
2021/11/12 06:09:27;;;;;;;37.77;14.17;;;;;;;;;;5094794;28;20487;-74
2021/11/12 06:11:55;;;;;;;31.80;15.20;;;;;;;;;;5094932;28;20456;-74
2021/11/12 06:14:23;;;;;;;38.53;16.20;;;;;;;;;;5095648;28;20548;-74
2021/11/12 06:16:57;;;;;;;38.50;15.40;;;;;;;;;;5094373;28;20792;-73
2021/11/12 06:19:25;;;;;;;32.00;14.67;;;;;;;;;;5094936;28;20458;-73
2021/11/12 06:22:03;;;;;;;32.07;15.37;;;;;;;;;;5094937;28;21122;-73
2021/11/12 06:24:31;;;;;;;35.43;14.40;;;;;;;;;;5094748;28;20474;-73
2021/11/12 06:27:05;;;;;;;27.83;12.50;;;;;;;;;;5094100;28;20448;-74
2021/11/12 06:29:34;;;;;;;26.53;12.17;;;;;;;;;;5103380;28;20505;-74
2021/11/12 06:32:07;;;;;;;28.67;11.73;;;;;;;;;;5074684;28;20448;-74
2021/11/12 06:34:37;;;;;;;24.60;10.57;;;;;;;;;;5075756;28;20460;-74
2021/11/12 06:37:05;;;;;;;22.83;11.20;;;;;;;;;;5074533;28;20444;-73
2021/11/12 06:39:36;;;;;;;27.10;11.40;;;;;;;;;;5074341;28;20506;-74
2021/11/12 06:42:11;;;;;;;32.33;11.10;;;;;;;;;;5080572;28;20443;-74
2021/11/12 06:50:16;;;;;;;30.07;13.03;;;;;;;;;;5093470;28;20474;-73
2021/11/12 06:52:45;;;;;;;24.50;10.43;;;;;;;;;;5092924;28;20496;-73
2021/11/12 06:55:19;;;;;;;21.97;9.57;;;;;;;;;;5095366;28;20530;-73
2021/11/12 07:00:29;;;;;;;18.27;8.63;;;;;;;;;;5087220;28;20480;-73
2021/11/12 07:02:59;;;;;;;29.67;11.33;;;;;;;;;;5093207;28;20454;-73
2021/11/12 07:05:27;;;;;;;27.87;9.90;;;;;;;;;;5094113;28;20673;-73
2021/11/12 07:07:58;;;;;;;28.60;11.63;;;;;;;;;;5096188;28;20447;-73
2021/11/12 07:10:29;;;;;;;29.93;12.47;;;;;;;;;;5092660;28;20435;-73
2021/11/12 07:12:59;;;;;;;26.87;9.93;;;;;;;;;;5092743;28;20506;-74
2021/11/12 07:15:28;;;;;;;20.77;9.77;;;;;;;;;;5094835;28;20521;-73
2021/11/12 07:17:57;;;;;;;24.53;11.70;;;;;;;;;;5094760;28;20471;-73
2021/11/12 07:20:27;;;;;;;25.97;10.90;;;;;;;;;;5094916;28;20444;-74
2021/11/12 07:23:04;;;;;;;22.17;12.60;;;;;;;;;;5094936;28;20459;-72
2021/11/12 07:25:31;;;;;;;25.20;11.07;;;;;;;;;;5095622;28;20443;-73
2021/11/12 07:27:59;;;;;;;30.50;11.83;;;;;;;;;;5093179;28;20482;-73
2021/11/12 07:30:27;;;;;;;33.17;12.67;;;;;;;;;;5090621;28;20476;-73
2021/11/12 07:32:55;;;;;;;27.03;12.90;;;;;;;;;;5093799;28;20467;-73
2021/11/12 07:35:28;;;;;;;31.30;13.37;;;;;;;;;;5095604;28;20452;-73
2021/11/12 07:38:08;;;;;;;19.37;7.17;;;;;;;;;;5099093;28;20454;-73
2021/11/12 07:46:15;;;;;;;33.23;13.50;;;;;;;;;;5073921;28;20440;-74
2021/11/12 07:48:48;;;;;;;29.50;12.07;;;;;;;;;;5092571;28;20813;-74
2021/11/12 07:51:18;;;;;;;27.70;11.10;;;;;;;;;;5096806;28;20451;-75
2021/11/12 07:53:51;;;;;;;22.00;10.70;;;;;;;;;;5095012;28;20466;-73
2021/11/12 07:56:19;;;;;;;20.80;12.90;;;;;;;;;;5096120;28;20464;-73
2021/11/12 07:58:47;;;;;;;24.57;11.80;;;;;;;;;;5094450;28;20464;-74
2021/11/12 08:01:21;;;;;;;24.40;10.67;;;;;;;;;;5094694;28;20520;-74
2021/11/12 08:03:53;;;;;;;34.07;13.03;;;;;;;;;;5094223;28;20524;-74
2021/11/12 08:06:24;;;;;;;33.70;11.80;;;;;;;;;;5093832;28;20448;-74
2021/11/12 08:09:06;;;;;;;22.40;10.60;;;;;;;;;;5094371;28;20483;-74
2021/11/12 08:11:37;;;;;;;21.33;12.50;;;;;;;;;;5093183;28;20452;-73
2021/11/12 08:14:10;;;;;;;19.77;11.13;;;;;;;;;;5093990;28;20454;-74
2021/11/12 08:16:56;;;;;;;26.20;10.10;;;;;;;;;;5093929;28;20824;-74
2021/11/12 08:19:34;;;;;;;16.97;8.70;;;;;;;;;;5093910;28;20443;-74
2021/11/12 08:22:07;;;;;;;18.07;9.57;;;;;;;;;;5094818;28;20455;-74
2021/11/12 08:31:10;;;;;;;18.20;7.73;;;;;;;;;;5089198;28;20482;-73
2021/11/12 08:33:58;;;;;;;16.13;9.27;;;;;;;;;;5105457;28;20526;-72
2021/11/12 08:39:25;;;;;;;11.77;6.27;;;;;;;;;;5072330;28;20974;-74
2021/11/12 08:42:08;;;;;;;14.70;6.93;;;;;;;;;;5075076;28;20460;-75
2021/11/12 08:44:50;;;;;;;13.63;8.70;;;;;;;;;;5073966;28;20456;-75
2021/11/12 08:47:52;;;;;;;18.53;10.37;;;;;;;;;;5072806;28;20484;-74
2021/11/12 08:50:25;;;;;;;11.73;7.87;;;;;;;;;;5070955;28;20570;-72
2021/11/12 08:53:02;;;;;;;13.53;8.63;;;;;;;;;;5092590;28;20945;-73
2021/11/12 08:55:31;;;;;;;15.83;9.37;;;;;;;;;;5098415;28;20810;-73
2021/11/12 08:58:08;;;;;;;18.17;8.73;;;;;;;;;;5079190;28;20558;-73
2021/11/12 09:00:50;;;;;;;16.43;8.60;;;;;;;;;;5090101;28;20491;-74
2021/11/12 09:03:33;;;;;;;20.60;10.73;;;;;;;;;;5099030;28;20480;-74
2021/11/12 09:06:19;;;;;;;16.10;10.93;;;;;;;;;;5095043;28;20454;-73
2021/11/12 09:08:48;;;;;;;17.67;10.73;;;;;;;;;;5114510;28;20738;-73
2021/11/12 09:11:21;;;;;;;19.47;10.37;;;;;;;;;;5119282;28;20442;-73
2021/11/12 09:14:00;;;;;;;15.83;8.27;;;;;;;;;;5118431;28;20452;-73
2021/11/12 09:16:35;;;;;;;13.90;7.50;;;;;;;;;;5117876;28;20442;-73
2021/11/12 09:22:15;;;;;;;19.67;9.80;;;;;;;;;;5114161;28;20808;-74
2021/11/12 09:24:47;;;;;;;12.93;8.63;;;;;;;;;;5098550;28;20505;-73
2021/11/12 09:27:16;;;;;;;15.60;9.07;;;;;;;;;;5117059;28;20542;-74
2021/11/12 09:29:46;;;;;;;19.80;10.73;;;;;;;;;;5116630;28;20485;-74
2021/11/12 09:32:21;;;;;;;16.43;10.60;;;;;;;;;;5118563;28;20590;-73
2021/11/12 09:34:53;;;;;;;15.13;10.20;;;;;;;;;;5103796;28;20944;-74
2021/11/12 09:37:22;;;;;;;15.40;10.93;;;;;;;;;;5097858;28;20773;-74
2021/11/12 09:39:57;;;;;;;20.23;9.40;;;;;;;;;;5098077;28;20522;-74
2021/11/12 09:42:31;;;;;;;16.67;10.60;;;;;;;;;;5096687;28;20470;-74
2021/11/12 09:45:00;;;;;;;26.30;14.27;;;;;;;;;;5098638;28;20800;-74
2021/11/12 09:47:38;;;;;;;20.37;12.37;;;;;;;;;;5098367;28;20869;-74
2021/11/12 09:50:09;;;;;;;44.83;16.47;;;;;;;;;;5096859;28;20585;-73
2021/11/12 09:52:37;;;;;;;26.10;10.90;;;;;;;;;;5097755;28;20455;-73
2021/11/12 09:55:17;;;;;;;18.33;13.50;;;;;;;;;;5086119;28;20537;-74
2021/11/12 09:57:47;;;;;;;21.13;11.53;;;;;;;;;;5092848;28;20467;-73
2021/11/12 10:00:17;;;;;;;19.83;11.63;;;;;;;;;;5098727;28;20439;-72
2021/11/12 10:03:02;;;;;;;24.23;15.80;;;;;;;;;;5097997;28;20519;-73
2021/11/12 10:05:46;;;;;;;18.27;11.03;;;;;;;;;;5097622;28;20444;-72
2021/11/12 10:08:25;;;;;;;21.83;12.83;;;;;;;;;;5076398;28;20551;-72
2021/11/12 10:10:55;;;;;;;21.40;12.13;;;;;;;;;;5089665;28;20482;-74
2021/11/12 10:13:30;;;;;;;19.50;10.67;;;;;;;;;;5096122;28;20452;-72
2021/11/12 10:19:03;;;;;;;24.63;13.60;;;;;;;;;;5092382;28;20521;-71
2021/11/12 10:21:33;;;;;;;22.23;11.10;;;;;;;;;;5095317;28;20455;-74
2021/11/12 10:24:01;;;;;;;23.23;13.37;;;;;;;;;;5096182;28;20451;-74
2021/11/12 10:26:45;;;;;;;25.63;14.60;;;;;;;;;;5097039;28;20550;-74
2021/11/12 10:29:20;;;;;;;23.80;11.90;;;;;;;;;;5096346;28;20451;-72
2021/11/12 10:32:09;;;;;;;23.20;14.07;;;;;;;;;;5095835;28;20443;-73
2021/11/12 10:34:46;;;;;;;28.43;14.57;;;;;;;;;;5081608;28;20452;-73
2021/11/12 10:37:28;;;;;;;26.60;15.20;;;;;;;;;;5076735;28;20463;-73
2021/11/12 10:40:05;;;;;;;19.43;10.80;;;;;;;;;;5075621;28;20452;-73
2021/11/12 10:42:35;;;;;;;25.13;13.10;;;;;;;;;;5081010;28;20516;-73
2021/11/12 10:45:20;;;;;;;21.50;11.10;;;;;;;;;;5092571;28;20444;-73
2021/11/12 10:48:07;;;;;;;22.60;12.37;;;;;;;;;;5094816;28;20910;-75
2021/11/12 10:50:45;;;;;;;21.57;11.80;;;;;;;;;;5096019;28;20484;-74
2021/11/12 10:53:30;;;;;;;22.60;13.43;;;;;;;;;;5092356;28;20715;-74
2021/11/12 10:56:06;;;;;;;26.60;14.80;;;;;;;;;;5093172;28;20448;-75
2021/11/12 10:58:50;;;;;;;18.43;11.00;;;;;;;;;;5091318;28;20513;-74
2021/11/12 11:01:48;;;;;;;13.17;8.20;;;;;;;;;;5087238;28;20455;-74
2021/11/12 11:04:43;;;;;;;16.50;9.60;;;;;;;;;;5090589;28;20915;-72
2021/11/12 11:07:21;;;;;;;11.87;8.17;;;;;;;;;;5086129;28;20478;-73
2021/11/12 11:09:49;;;;;;;11.80;7.27;;;;;;;;;;5090423;28;20564;-73
2021/11/12 11:12:46;;;;;;;12.33;8.37;;;;;;;;;;5093507;28;20555;-72
2021/11/12 11:15:27;;;;;;;10.80;6.73;;;;;;;;;;5071908;28;20455;-73
2021/11/12 11:18:18;;;;;;;9.57;6.63;;;;;;;;;;5076578;28;20897;-72
2021/11/12 11:20:48;;;;;;;17.70;11.97;;;;;;;;;;5074259;28;20852;-73
2021/11/12 11:23:18;;;;;;;12.63;8.53;;;;;;;;;;5086979;28;20456;-73
2021/11/12 11:25:57;;;;;;;10.50;7.57;;;;;;;;;;5091907;28;20516;-73
2021/11/12 11:28:26;;;;;;;16.33;10.93;;;;;;;;;;5092699;28;20544;-73
2021/11/12 11:30:59;;;;;;;12.77;7.10;;;;;;;;;;5092853;28;20553;-73
2021/11/12 11:33:31;;;;;;;13.10;7.87;;;;;;;;;;5093597;28;20859;-73
2021/11/12 11:35:59;;;;;;;14.13;8.00;;;;;;;;;;5094400;28;20464;-74
2021/11/12 11:38:30;;;;;;;11.57;6.53;;;;;;;;;;5093868;28;20508;-73
2021/11/12 11:43:49;;;;;;;8.73;6.20;;;;;;;;;;5101161;28;20795;-74
2021/11/12 11:46:23;;;;;;;11.13;7.07;;;;;;;;;;5110174;28;20459;-74
2021/11/12 11:48:53;;;;;;;11.70;8.27;;;;;;;;;;5094604;28;20446;-74
2021/11/12 11:51:38;;;;;;;17.63;6.90;;;;;;;;;;5093353;28;20957;-74
2021/11/12 11:54:32;;;;;;;12.00;7.90;;;;;;;;;;5095258;28;20439;-74
2021/11/12 11:57:18;;;;;;;13.43;8.23;;;;;;;;;;5095171;28;20458;-73
2021/11/12 11:59:48;;;;;;;9.07;6.67;;;;;;;;;;5093691;28;20471;-73
2021/11/12 12:02:26;;;;;;;15.27;9.50;;;;;;;;;;5092947;28;20456;-74
2021/11/12 12:05:08;;;;;;;13.77;8.80;;;;;;;;;;5093422;28;20462;-73
2021/11/12 12:08:08;;;;;;;11.20;6.40;;;;;;;;;;5093191;28;21027;-74
2021/11/12 12:13:59;;;;;;;11.50;7.17;;;;;;;;;;5089960;28;20529;-73
2021/11/12 12:16:32;;;;;;;19.80;9.93;;;;;;;;;;5090430;28;20435;-72
2021/11/12 12:19:06;;;;;;;7.90;5.23;;;;;;;;;;5079685;28;20440;-73
2021/11/12 12:36:33;;;;;;;9.07;5.37;;;;;;;;;;5096502;28;20461;-73
2021/11/12 13:23:14;;;;;;;11.77;8.33;;;;;;;;;;5117501;28;20438;-74
2021/11/12 13:31:44;;;;;;;9.87;6.00;;;;;;;;;;5015419;28;20962;-74
2021/11/12 13:34:36;;;;;;;9.37;5.93;;;;;;;;;;5001475;28;20451;-73
2021/11/12 13:37:13;;;;;;;5.93;4.73;;;;;;;;;;5084408;28;20459;-73
2021/11/12 13:39:40;;;;;;;7.73;5.90;;;;;;;;;;5096740;28;20465;-72
2021/11/12 13:42:16;;;;;;;8.87;6.83;;;;;;;;;;5106494;28;20446;-74
2021/11/12 13:45:08;;;;;;;12.10;7.03;;;;;;;;;;5125029;28;20467;-73
2021/11/12 13:50:52;;;;;;;11.60;7.90;;;;;;;;;;5035523;28;20474;-73
2021/11/12 13:53:38;;;;;;;14.43;8.60;;;;;;;;;;5034612;28;20458;-73
2021/11/12 13:59:18;;;;;;;8.30;6.60;;;;;;;;;;5056135;28;20463;-73
2021/11/12 14:01:46;;;;;;;9.90;7.10;;;;;;;;;;5085444;28;20534;-73
2021/11/12 14:04:33;;;;;;;12.90;8.10;;;;;;;;;;5080919;28;20484;-73
2021/11/12 14:07:04;;;;;;;10.60;7.93;;;;;;;;;;5091045;28;20894;-73
2021/11/12 14:09:55;;;;;;;;;;;;;;;;;;;;;
2021/11/12 14:12:26;;;;;;;11.23;8.23;;;;;;;;;;5078388;28;20440;-73
2021/11/12 14:15:04;;;;;;;8.10;6.60;;;;;;;;;;5095034;28;20571;-74
2021/11/12 14:17:48;;;;;;;12.87;7.27;;;;;;;;;;5092330;28;20474;-73
2021/11/12 14:20:29;;;;;;;11.97;7.30;;;;;;;;;;5095021;28;20451;-72
2021/11/12 14:28:49;;;;;;;9.90;7.30;;;;;;;;;;5070038;28;20453;-73
2021/11/12 14:34:19;;;;;;;15.07;9.90;;;;;;;;;;5079348;28;20903;-73
2021/11/12 14:36:58;;;;;;;10.67;7.40;;;;;;;;;;5093040;28;20451;-72
2021/11/12 14:39:43;;;;;;;10.07;7.77;;;;;;;;;;5093780;28;20455;-72
2021/11/12 14:45:05;;;;;;;15.63;8.73;;;;;;;;;;5036656;28;20459;-74
2021/11/12 14:50:31;;;;;;;14.80;10.13;;;;;;;;;;5095256;28;20432;-73
2021/11/12 14:53:17;;;;;;;10.97;8.90;;;;;;;;;;5095398;28;20523;-73
2021/11/12 14:55:51;;;;;;;18.47;10.17;;;;;;;;;;5074625;28;20444;-72
2021/11/12 14:58:20;;;;;;;13.73;9.77;;;;;;;;;;5090921;28;20860;-73
2021/11/12 15:00:48;;;;;;;14.17;8.67;;;;;;;;;;5093103;28;20499;-72
2021/11/12 15:03:20;;;;;;;11.60;9.13;;;;;;;;;;5104473;28;20446;-74
2021/11/12 15:05:50;;;;;;;11.93;7.57;;;;;;;;;;5112740;28;21089;-72
2021/11/12 15:08:21;;;;;;;13.17;10.80;;;;;;;;;;5113345;28;20447;-71
2021/11/12 15:10:52;;;;;;;15.87;10.90;;;;;;;;;;5099761;28;20586;-72
2021/11/12 15:13:20;;;;;;;15.40;11.67;;;;;;;;;;5100475;28;20494;-71
2021/11/12 15:15:52;;;;;;;13.50;9.13;;;;;;;;;;5090601;28;20464;-72
2021/11/12 15:18:19;;;;;;;16.93;10.80;;;;;;;;;;5095139;28;20448;-72
2021/11/12 15:20:57;;;;;;;15.83;11.57;;;;;;;;;;5102888;28;20451;-72
2021/11/12 15:23:42;;;;;;;19.73;10.83;;;;;;;;;;5104105;28;20474;-73
2021/11/12 15:29:03;;;;;;;14.90;10.87;;;;;;;;;;5083042;28;20434;-71
2021/11/12 15:31:36;;;;;;;15.50;10.70;;;;;;;;;;5083312;28;20902;-72
2021/11/12 15:34:08;;;;;;;18.40;11.53;;;;;;;;;;5088773;28;20457;-73
2021/11/12 15:36:43;;;;;;;26.80;17.90;;;;;;;;;;5115894;28;20819;-72
2021/11/12 15:39:12;;;;;;;18.90;12.10;;;;;;;;;;5083874;28;20455;-71
2021/11/12 15:44:39;;;;;;;21.10;13.20;;;;;;;;;;5026694;28;20458;-72
2021/11/12 15:47:08;;;;;;;22.57;16.03;;;;;;;;;;5074284;28;20538;-71
2021/11/12 15:49:38;;;;;;;21.37;15.10;;;;;;;;;;5094943;28;20518;-72
2021/11/12 15:52:18;;;;;;;19.40;14.53;;;;;;;;;;5075204;28;20479;-72
2021/11/12 15:55:06;;;;;;;21.67;15.07;;;;;;;;;;5090890;28;20567;-72
2021/11/12 16:00:29;;;;;;;25.53;16.70;;;;;;;;;;5091288;28;20468;-72
2021/11/12 16:06:11;;;;;;;19.10;13.57;;;;;;;;;;5098420;28;20584;-72
2021/11/12 16:08:50;;;;;;;28.03;17.87;;;;;;;;;;5092985;28;20570;-73
2021/11/12 16:11:35;;;;;;;24.37;14.93;;;;;;;;;;5096307;28;20471;-73
2021/11/12 16:14:08;;;;;;;20.50;15.40;;;;;;;;;;5098780;28;20451;-74
2021/11/12 16:19:38;;;;;;;23.93;14.60;;;;;;;;;;5075108;28;20440;-73
2021/11/12 16:22:30;;;;;;;23.77;14.60;;;;;;;;;;5078164;28;20444;-74
2021/11/12 16:25:09;;;;;;;27.63;16.77;;;;;;;;;;5078715;28;20531;-74
2021/11/12 16:27:39;;;;;;;32.30;16.50;;;;;;;;;;5098832;28;20454;-72
2021/11/12 16:30:21;;;;;;;21.30;13.37;;;;;;;;;;5078707;28;20457;-73
2021/11/12 16:32:51;;;;;;;25.63;18.63;;;;;;;;;;5078833;28;20492;-74
2021/11/12 16:35:25;;;;;;;24.57;16.30;;;;;;;;;;5094094;28;20459;-76
2021/11/12 16:38:21;;;;;;;23.07;14.90;;;;;;;;;;5099248;28;20542;-76
2021/11/12 16:40:57;;;;;;;30.87;18.77;;;;;;;;;;5103316;28;21087;-75
2021/11/12 16:46:42;;;;;;;27.57;15.00;;;;;;;;;;5096067;28;20496;-73
2021/11/12 16:49:16;;;;;;;22.20;14.97;;;;;;;;;;5099210;28;20523;-73
2021/11/12 16:52:09;;;;;;;30.27;16.47;;;;;;;;;;5098233;28;21002;-72
2021/11/12 16:54:43;;;;;;;30.37;16.10;;;;;;;;;;5097926;28;20451;-73
2021/11/12 16:57:42;;;;;;;25.30;14.83;;;;;;;;;;5098997;28;20507;-73
2021/11/12 17:00:32;;;;;;;27.40;17.90;;;;;;;;;;5096833;28;20520;-72
2021/11/12 17:03:14;;;;;;;31.47;16.70;;;;;;;;;;5099076;28;20549;-73
2021/11/12 17:05:50;;;;;;;24.50;14.10;;;;;;;;;;5098867;28;20485;-74
2021/11/12 17:08:33;;;;;;;31.40;17.00;;;;;;;;;;5098834;28;20447;-74
2021/11/12 17:11:08;;;;;;;28.17;18.07;;;;;;;;;;5095024;28;20530;-73
2021/11/12 17:13:45;;;;;;;24.20;15.17;;;;;;;;;;5097922;28;20528;-72
2021/11/12 17:19:20;;;;;;;26.17;16.93;;;;;;;;;;5096697;28;20423;-73
2021/11/12 17:47:08;;;;;;;35.97;21.97;;;;;;;;;;5089887;28;20426;-74
2021/11/12 17:49:55;;;;;;;32.47;18.57;;;;;;;;;;5101094;28;20513;-74
2021/11/12 18:03:47;;;;;;;34.63;19.23;;;;;;;;;;5081449;28;20420;-74
2021/11/12 18:06:19;;;;;;;34.13;19.67;;;;;;;;;;5096231;28;20463;-74
2021/11/12 21:44:32;;;;;;;48.43;25.57;;;;;;;;;;5035506;28;20508;-73
2021/11/12 21:47:08;;;;;;;51.27;23.37;;;;;;;;;;5047056;28;20456;-72
2021/11/12 21:49:37;;;;;;;43.50;23.10;;;;;;;;;;5096979;28;20586;-73
2021/11/12 21:52:08;;;;;;;41.77;23.00;;;;;;;;;;5098671;28;20478;-73
2021/11/12 21:54:38;;;;;;;51.17;27.80;;;;;;;;;;5098690;28;20513;-73
2021/11/12 21:57:07;;;;;;;53.50;25.30;;;;;;;;;;5097692;28;20448;-73
2021/11/12 21:59:38;;;;;;;46.00;25.30;;;;;;;;;;5097862;28;20525;-73
2021/11/12 22:02:07;;;;;;;69.47;33.07;;;;;;;;;;5097958;28;20472;-74
2021/11/12 22:04:35;;;;;;;41.10;20.97;;;;;;;;;;5099322;28;20479;-73
2021/11/12 22:07:03;;;;;;;42.40;21.40;;;;;;;;;;5082730;28;20451;-73
2021/11/12 22:09:33;;;;;;;43.43;23.63;;;;;;;;;;5078160;28;20459;-73
2021/11/12 22:12:09;;;;;;;46.47;22.27;;;;;;;;;;5087892;28;20471;-75
2021/11/12 22:14:43;;;;;;;60.43;26.33;;;;;;;;;;5086454;28;20460;-76
2021/11/12 22:17:13;;;;;;;53.70;27.83;;;;;;;;;;5077933;28;20534;-73
2021/11/12 22:19:50;;;;;;;49.40;24.23;;;;;;;;;;5087706;28;20527;-74
2021/11/12 22:22:40;;;;;;;43.57;24.13;;;;;;;;;;5097832;28;20500;-74
2021/11/12 22:25:17;;;;;;;71.63;40.97;;;;;;;;;;5093440;28;20774;-74
2021/11/12 22:27:47;;;;;;;53.33;22.87;;;;;;;;;;5092326;28;20447;-72
2021/11/12 22:30:18;;;;;;;48.97;26.13;;;;;;;;;;5097463;28;20528;-73
2021/11/12 22:32:48;;;;;;;40.37;20.27;;;;;;;;;;5082334;28;20514;-72
2021/11/12 22:35:16;;;;;;;48.00;24.20;;;;;;;;;;5086688;28;20460;-73
2021/11/12 22:37:44;;;;;;;45.07;26.27;;;;;;;;;;5094310;28;20462;-72
2021/11/12 22:40:12;;;;;;;34.70;19.43;;;;;;;;;;5089954;28;20471;-71
2021/11/12 22:42:42;;;;;;;51.30;23.87;;;;;;;;;;5087860;28;20498;-72
2021/11/12 22:45:17;;;;;;;42.10;17.60;;;;;;;;;;5098911;28;20800;-73
2021/11/12 22:48:02;;;;;;;43.13;21.23;;;;;;;;;;5097873;28;20491;-73
2021/11/12 22:50:32;;;;;;;49.07;22.93;;;;;;;;;;5107378;28;20874;-72
2021/11/12 22:53:00;;;;;;;48.07;25.97;;;;;;;;;;5117457;28;20859;-71
2021/11/12 22:55:36;;;;;;;59.73;22.30;;;;;;;;;;5116930;28;20455;-72
2021/11/12 22:58:05;;;;;;;63.63;32.07;;;;;;;;;;5113491;28;20446;-73
2021/11/12 23:00:43;;;;;;;224.60;106.97;;;;;;;;;;5118065;28;20446;-71
2021/11/12 23:03:16;;;;;;;61.40;30.47;;;;;;;;;;5117477;28;20450;-71
2021/11/12 23:05:44;;;;;;;45.23;20.80;;;;;;;;;;5101200;28;20452;-71
2021/11/12 23:08:11;;;;;;;49.67;24.50;;;;;;;;;;5096795;28;20443;-71
2021/11/12 23:10:40;;;;;;;57.43;25.50;;;;;;;;;;5103660;28;20459;-71
2021/11/12 23:13:07;;;;;;;65.63;29.17;;;;;;;;;;5098014;28;20471;-71
2021/11/12 23:15:35;;;;;;;64.20;26.50;;;;;;;;;;5104520;28;20810;-71
2021/11/12 23:18:08;;;;;;;59.40;26.40;;;;;;;;;;5102892;28;20783;-71
2021/11/12 23:20:39;;;;;;;63.50;26.87;;;;;;;;;;5097799;28;20713;-72
2021/11/12 23:23:07;;;;;;;52.27;23.13;;;;;;;;;;5077088;28;20853;-73
2021/11/12 23:25:37;;;;;;;49.13;23.90;;;;;;;;;;5093708;28;20466;-72
2021/11/12 23:28:05;;;;;;;51.13;25.63;;;;;;;;;;5103036;28;20495;-72
2021/11/12 23:30:33;;;;;;;37.77;19.90;;;;;;;;;;5110949;28;20449;-72
2021/11/12 23:33:02;;;;;;;60.20;26.20;;;;;;;;;;5100198;28;20899;-72
2021/11/12 23:35:35;;;;;;;168.07;85.70;;;;;;;;;;5094009;28;20449;-72
2021/11/12 23:38:04;;;;;;;54.07;24.23;;;;;;;;;;5090945;28;20519;-71
2021/11/12 23:40:41;;;;;;;55.60;27.37;;;;;;;;;;5096558;28;20565;-71
2021/11/12 23:43:10;;;;;;;54.23;25.40;;;;;;;;;;5100905;28;20474;-71
2021/11/12 23:45:38;;;;;;;59.80;27.77;;;;;;;;;;5092508;28;20480;-72
2021/11/12 23:48:06;;;;;;;64.37;27.17;;;;;;;;;;5095134;28;20470;-75
2021/11/12 23:50:36;;;;;;;50.67;25.03;;;;;;;;;;5096374;28;20722;-73
2021/11/12 23:53:04;;;;;;;61.17;27.03;;;;;;;;;;5076483;28;20499;-71
2021/11/12 23:55:35;;;;;;;61.30;27.80;;;;;;;;;;5098995;28;20454;-72
2021/11/12 23:58:05;;;;;;;44.20;20.57;;;;;;;;;;5095298;28;20936;-72
